sensor_id;sensor_type;location;lat;lon;timestamp;P1;durP1;ratioP1;P2;durP2;ratioP2
28481;SDS011;15703;49.588;6.260;2024-03-08T00:00:25;21.87;;;14.17;;
28481;SDS011;15703;49.588;6.260;2024-03-08T00:02:48;21.93;;;14.53;;
28481;SDS011;15703;49.588;6.260;2024-03-08T00:05:13;19.37;;;14.20;;
28481;SDS011;15703;49.588;6.260;2024-03-08T00:07:35;18.47;;;13.60;;
28481;SDS011;15703;49.588;6.260;2024-03-08T00:09:58;18.27;;;14.80;;
28481;SDS011;15703;49.588;6.260;2024-03-08T00:12:20;18.30;;;13.03;;
28481;SDS011;15703;49.588;6.260;2024-03-08T00:14:43;20.27;;;14.70;;
28481;SDS011;15703;49.588;6.260;2024-03-08T00:17:06;20.07;;;14.73;;
28481;SDS011;15703;49.588;6.260;2024-03-08T00:19:28;18.73;;;14.30;;
28481;SDS011;15703;49.588;6.260;2024-03-08T00:21:51;19.20;;;15.23;;
28481;SDS011;15703;49.588;6.260;2024-03-08T00:24:14;19.07;;;13.73;;
28481;SDS011;15703;49.588;6.260;2024-03-08T00:26:36;20.13;;;14.40;;
28481;SDS011;15703;49.588;6.260;2024-03-08T00:28:59;21.50;;;15.20;;
28481;SDS011;15703;49.588;6.260;2024-03-08T00:31:25;19.87;;;15.23;;
28481;SDS011;15703;49.588;6.260;2024-03-08T00:33:48;20.33;;;14.60;;
28481;SDS011;15703;49.588;6.260;2024-03-08T00:36:10;20.87;;;16.17;;
28481;SDS011;15703;49.588;6.260;2024-03-08T00:38:33;21.57;;;15.33;;
28481;SDS011;15703;49.588;6.260;2024-03-08T00:40:55;19.40;;;14.73;;
28481;SDS011;15703;49.588;6.260;2024-03-08T00:43:18;22.03;;;16.03;;
28481;SDS011;15703;49.588;6.260;2024-03-08T00:45:40;20.33;;;15.17;;
28481;SDS011;15703;49.588;6.260;2024-03-08T00:48:05;21.60;;;15.27;;
28481;SDS011;15703;49.588;6.260;2024-03-08T00:50:28;22.53;;;15.23;;
28481;SDS011;15703;49.588;6.260;2024-03-08T00:52:50;23.63;;;15.73;;
28481;SDS011;15703;49.588;6.260;2024-03-08T00:55:13;24.30;;;16.00;;
28481;SDS011;15703;49.588;6.260;2024-03-08T00:57:35;21.77;;;15.30;;
28481;SDS011;15703;49.588;6.260;2024-03-08T00:59:57;21.90;;;15.03;;
28481;SDS011;15703;49.588;6.260;2024-03-08T01:02:20;22.37;;;16.23;;
28481;SDS011;15703;49.588;6.260;2024-03-08T01:04:44;23.67;;;15.57;;
28481;SDS011;15703;49.588;6.260;2024-03-08T01:07:08;20.90;;;14.57;;
28481;SDS011;15703;49.588;6.260;2024-03-08T01:09:31;22.93;;;15.87;;
28481;SDS011;15703;49.588;6.260;2024-03-08T01:11:56;20.27;;;14.70;;
28481;SDS011;15703;49.588;6.260;2024-03-08T01:14:19;19.07;;;13.03;;
28481;SDS011;15703;49.588;6.260;2024-03-08T01:16:43;20.33;;;14.67;;
28481;SDS011;15703;49.588;6.260;2024-03-08T01:19:06;19.40;;;14.43;;
28481;SDS011;15703;49.588;6.260;2024-03-08T01:21:28;20.33;;;14.93;;
28481;SDS011;15703;49.588;6.260;2024-03-08T01:23:51;20.30;;;14.33;;
28481;SDS011;15703;49.588;6.260;2024-03-08T01:26:13;23.17;;;16.07;;
28481;SDS011;15703;49.588;6.260;2024-03-08T01:28:36;19.83;;;14.20;;
28481;SDS011;15703;49.588;6.260;2024-03-08T01:30:58;20.57;;;14.50;;
28481;SDS011;15703;49.588;6.260;2024-03-08T01:33:24;20.90;;;15.73;;
28481;SDS011;15703;49.588;6.260;2024-03-08T01:35:47;20.43;;;14.87;;
28481;SDS011;15703;49.588;6.260;2024-03-08T01:38:09;20.23;;;14.40;;
28481;SDS011;15703;49.588;6.260;2024-03-08T01:40:32;22.13;;;16.03;;
28481;SDS011;15703;49.588;6.260;2024-03-08T01:42:54;20.83;;;14.33;;
28481;SDS011;15703;49.588;6.260;2024-03-08T01:45:16;24.23;;;16.37;;
28481;SDS011;15703;49.588;6.260;2024-03-08T01:47:39;20.20;;;14.77;;
28481;SDS011;15703;49.588;6.260;2024-03-08T01:50:02;20.63;;;14.57;;
28481;SDS011;15703;49.588;6.260;2024-03-08T01:52:24;22.63;;;15.43;;
28481;SDS011;15703;49.588;6.260;2024-03-08T01:54:47;21.93;;;15.67;;
28481;SDS011;15703;49.588;6.260;2024-03-08T01:57:10;20.73;;;15.63;;
28481;SDS011;15703;49.588;6.260;2024-03-08T01:59:32;20.70;;;15.33;;
28481;SDS011;15703;49.588;6.260;2024-03-08T02:01:55;21.73;;;15.60;;
28481;SDS011;15703;49.588;6.260;2024-03-08T02:04:17;19.33;;;14.70;;
28481;SDS011;15703;49.588;6.260;2024-03-08T02:06:40;20.40;;;15.43;;
28481;SDS011;15703;49.588;6.260;2024-03-08T02:09:02;20.63;;;15.33;;
28481;SDS011;15703;49.588;6.260;2024-03-08T02:11:27;22.50;;;15.07;;
28481;SDS011;15703;49.588;6.260;2024-03-08T02:13:50;27.67;;;16.83;;
28481;SDS011;15703;49.588;6.260;2024-03-08T02:16:12;25.80;;;17.13;;
28481;SDS011;15703;49.588;6.260;2024-03-08T02:18:35;22.27;;;16.07;;
28481;SDS011;15703;49.588;6.260;2024-03-08T02:20:59;23.77;;;16.87;;
28481;SDS011;15703;49.588;6.260;2024-03-08T02:23:21;22.10;;;15.23;;
28481;SDS011;15703;49.588;6.260;2024-03-08T02:25:45;22.47;;;14.90;;
28481;SDS011;15703;49.588;6.260;2024-03-08T02:28:11;19.93;;;14.97;;
28481;SDS011;15703;49.588;6.260;2024-03-08T02:30:33;23.23;;;15.67;;
28481;SDS011;15703;49.588;6.260;2024-03-08T02:32:57;23.07;;;15.63;;
28481;SDS011;15703;49.588;6.260;2024-03-08T02:35:20;22.67;;;15.63;;
28481;SDS011;15703;49.588;6.260;2024-03-08T02:37:42;22.23;;;15.00;;
28481;SDS011;15703;49.588;6.260;2024-03-08T02:40:05;19.77;;;14.37;;
28481;SDS011;15703;49.588;6.260;2024-03-08T02:42:28;24.77;;;16.27;;
28481;SDS011;15703;49.588;6.260;2024-03-08T02:44:51;26.70;;;16.60;;
28481;SDS011;15703;49.588;6.260;2024-03-08T02:47:13;24.20;;;16.57;;
28481;SDS011;15703;49.588;6.260;2024-03-08T02:49:36;24.17;;;15.53;;
28481;SDS011;15703;49.588;6.260;2024-03-08T02:51:59;25.80;;;16.83;;
28481;SDS011;15703;49.588;6.260;2024-03-08T02:54:21;20.90;;;14.73;;
28481;SDS011;15703;49.588;6.260;2024-03-08T02:56:43;24.97;;;17.67;;
28481;SDS011;15703;49.588;6.260;2024-03-08T02:59:06;24.97;;;17.97;;
28481;SDS011;15703;49.588;6.260;2024-03-08T03:01:29;23.57;;;17.67;;
28481;SDS011;15703;49.588;6.260;2024-03-08T03:03:53;28.73;;;18.00;;
28481;SDS011;15703;49.588;6.260;2024-03-08T03:06:15;26.30;;;16.63;;
28481;SDS011;15703;49.588;6.260;2024-03-08T03:08:39;25.33;;;17.80;;
28481;SDS011;15703;49.588;6.260;2024-03-08T03:11:04;25.77;;;17.47;;
28481;SDS011;15703;49.588;6.260;2024-03-08T03:13:26;27.20;;;17.20;;
28481;SDS011;15703;49.588;6.260;2024-03-08T03:15:50;25.47;;;16.97;;
28481;SDS011;15703;49.588;6.260;2024-03-08T03:18:18;25.10;;;17.13;;
28481;SDS011;15703;49.588;6.260;2024-03-08T03:20:43;23.50;;;16.97;;
28481;SDS011;15703;49.588;6.260;2024-03-08T03:23:06;24.50;;;17.47;;
28481;SDS011;15703;49.588;6.260;2024-03-08T03:25:29;26.83;;;17.43;;
28481;SDS011;15703;49.588;6.260;2024-03-08T03:27:56;23.00;;;16.77;;
28481;SDS011;15703;49.588;6.260;2024-03-08T03:30:18;27.07;;;16.90;;
28481;SDS011;15703;49.588;6.260;2024-03-08T03:32:44;24.57;;;16.50;;
28481;SDS011;15703;49.588;6.260;2024-03-08T03:35:08;24.63;;;18.00;;
28481;SDS011;15703;49.588;6.260;2024-03-08T03:37:30;28.10;;;18.40;;
28481;SDS011;15703;49.588;6.260;2024-03-08T03:39:53;31.37;;;19.30;;
28481;SDS011;15703;49.588;6.260;2024-03-08T03:42:16;27.57;;;18.60;;
28481;SDS011;15703;49.588;6.260;2024-03-08T03:44:39;27.47;;;18.53;;
28481;SDS011;15703;49.588;6.260;2024-03-08T03:47:01;30.47;;;19.17;;
28481;SDS011;15703;49.588;6.260;2024-03-08T03:49:24;31.87;;;19.50;;
28481;SDS011;15703;49.588;6.260;2024-03-08T03:51:46;30.23;;;19.67;;
28481;SDS011;15703;49.588;6.260;2024-03-08T03:54:08;32.27;;;20.10;;
28481;SDS011;15703;49.588;6.260;2024-03-08T03:56:31;32.23;;;19.20;;
28481;SDS011;15703;49.588;6.260;2024-03-08T03:58:53;29.23;;;17.73;;
28481;SDS011;15703;49.588;6.260;2024-03-08T04:01:16;24.83;;;17.10;;
28481;SDS011;15703;49.588;6.260;2024-03-08T04:03:44;27.13;;;17.53;;
28481;SDS011;15703;49.588;6.260;2024-03-08T04:06:06;28.20;;;18.20;;
28481;SDS011;15703;49.588;6.260;2024-03-08T04:08:29;30.40;;;18.53;;
28481;SDS011;15703;49.588;6.260;2024-03-08T04:10:52;23.77;;;16.97;;
28481;SDS011;15703;49.588;6.260;2024-03-08T04:13:15;24.97;;;16.60;;
28481;SDS011;15703;49.588;6.260;2024-03-08T04:15:37;26.87;;;17.33;;
28481;SDS011;15703;49.588;6.260;2024-03-08T04:17:59;24.93;;;17.63;;
28481;SDS011;15703;49.588;6.260;2024-03-08T04:20:22;26.27;;;16.87;;
28481;SDS011;15703;49.588;6.260;2024-03-08T04:22:44;24.30;;;16.27;;
28481;SDS011;15703;49.588;6.260;2024-03-08T04:25:10;24.90;;;16.47;;
28481;SDS011;15703;49.588;6.260;2024-03-08T04:27:33;24.30;;;17.03;;
28481;SDS011;15703;49.588;6.260;2024-03-08T04:29:56;28.83;;;17.97;;
28481;SDS011;15703;49.588;6.260;2024-03-08T04:32:18;26.07;;;18.13;;
28481;SDS011;15703;49.588;6.260;2024-03-08T04:34:41;26.33;;;17.70;;
28481;SDS011;15703;49.588;6.260;2024-03-08T04:37:07;26.07;;;17.73;;
28481;SDS011;15703;49.588;6.260;2024-03-08T04:39:32;27.40;;;18.00;;
28481;SDS011;15703;49.588;6.260;2024-03-08T04:41:55;27.33;;;18.33;;
28481;SDS011;15703;49.588;6.260;2024-03-08T04:44:19;30.60;;;18.83;;
28481;SDS011;15703;49.588;6.260;2024-03-08T04:46:42;28.50;;;19.03;;
28481;SDS011;15703;49.588;6.260;2024-03-08T04:49:05;27.80;;;17.40;;
28481;SDS011;15703;49.588;6.260;2024-03-08T04:51:28;30.83;;;20.47;;
28481;SDS011;15703;49.588;6.260;2024-03-08T04:53:50;25.97;;;17.87;;
28481;SDS011;15703;49.588;6.260;2024-03-08T04:56:13;30.30;;;18.87;;
28481;SDS011;15703;49.588;6.260;2024-03-08T04:58:35;30.43;;;18.57;;
28481;SDS011;15703;49.588;6.260;2024-03-08T05:00:58;32.10;;;19.67;;
28481;SDS011;15703;49.588;6.260;2024-03-08T05:03:20;24.80;;;17.63;;
28481;SDS011;15703;49.588;6.260;2024-03-08T05:05:43;26.67;;;17.80;;
28481;SDS011;15703;49.588;6.260;2024-03-08T05:08:06;26.03;;;17.90;;
28481;SDS011;15703;49.588;6.260;2024-03-08T05:10:28;27.53;;;17.10;;
28481;SDS011;15703;49.588;6.260;2024-03-08T05:12:50;30.70;;;17.97;;
28481;SDS011;15703;49.588;6.260;2024-03-08T05:15:17;27.57;;;17.23;;
28481;SDS011;15703;49.588;6.260;2024-03-08T05:17:41;27.60;;;18.43;;
28481;SDS011;15703;49.588;6.260;2024-03-08T05:20:04;27.77;;;17.20;;
28481;SDS011;15703;49.588;6.260;2024-03-08T05:22:29;28.93;;;18.37;;
28481;SDS011;15703;49.588;6.260;2024-03-08T05:24:51;26.03;;;18.07;;
28481;SDS011;15703;49.588;6.260;2024-03-08T05:27:14;26.77;;;17.43;;
28481;SDS011;15703;49.588;6.260;2024-03-08T05:29:36;26.77;;;18.20;;
28481;SDS011;15703;49.588;6.260;2024-03-08T05:31:59;25.07;;;17.20;;
28481;SDS011;15703;49.588;6.260;2024-03-08T05:34:21;23.60;;;16.70;;
28481;SDS011;15703;49.588;6.260;2024-03-08T05:36:44;23.67;;;16.20;;
28481;SDS011;15703;49.588;6.260;2024-03-08T05:39:16;28.47;;;18.43;;
28481;SDS011;15703;49.588;6.260;2024-03-08T05:41:39;29.13;;;19.80;;
28481;SDS011;15703;49.588;6.260;2024-03-08T05:44:02;27.27;;;18.67;;
28481;SDS011;15703;49.588;6.260;2024-03-08T05:46:24;29.40;;;18.60;;
28481;SDS011;15703;49.588;6.260;2024-03-08T05:48:47;26.17;;;17.43;;
28481;SDS011;15703;49.588;6.260;2024-03-08T05:51:09;31.40;;;18.63;;
28481;SDS011;15703;49.588;6.260;2024-03-08T05:53:33;31.20;;;19.10;;
28481;SDS011;15703;49.588;6.260;2024-03-08T05:55:55;32.20;;;20.43;;
28481;SDS011;15703;49.588;6.260;2024-03-08T05:58:18;31.33;;;19.83;;
28481;SDS011;15703;49.588;6.260;2024-03-08T06:00:40;31.60;;;19.43;;
28481;SDS011;15703;49.588;6.260;2024-03-08T06:03:03;30.47;;;19.53;;
28481;SDS011;15703;49.588;6.260;2024-03-08T06:05:25;29.57;;;19.67;;
28481;SDS011;15703;49.588;6.260;2024-03-08T06:07:47;32.40;;;20.63;;
28481;SDS011;15703;49.588;6.260;2024-03-08T06:10:10;28.83;;;19.47;;
28481;SDS011;15703;49.588;6.260;2024-03-08T06:12:36;28.97;;;19.07;;
28481;SDS011;15703;49.588;6.260;2024-03-08T06:15:02;31.03;;;21.03;;
28481;SDS011;15703;49.588;6.260;2024-03-08T06:17:25;30.70;;;19.93;;
28481;SDS011;15703;49.588;6.260;2024-03-08T06:19:48;28.90;;;18.97;;
28481;SDS011;15703;49.588;6.260;2024-03-08T06:22:11;30.33;;;19.17;;
28481;SDS011;15703;49.588;6.260;2024-03-08T06:24:35;33.83;;;19.50;;
28481;SDS011;15703;49.588;6.260;2024-03-08T06:27:01;32.37;;;20.37;;
28481;SDS011;15703;49.588;6.260;2024-03-08T06:29:23;31.30;;;19.97;;
28481;SDS011;15703;49.588;6.260;2024-03-08T06:31:46;31.57;;;19.77;;
28481;SDS011;15703;49.588;6.260;2024-03-08T06:34:08;28.63;;;18.10;;
28481;SDS011;15703;49.588;6.260;2024-03-08T06:36:31;27.47;;;18.27;;
28481;SDS011;15703;49.588;6.260;2024-03-08T06:38:53;34.37;;;20.67;;
28481;SDS011;15703;49.588;6.260;2024-03-08T06:41:16;30.83;;;19.60;;
28481;SDS011;15703;49.588;6.260;2024-03-08T06:43:38;33.90;;;20.80;;
28481;SDS011;15703;49.588;6.260;2024-03-08T06:46:01;29.00;;;19.53;;
28481;SDS011;15703;49.588;6.260;2024-03-08T06:48:25;32.73;;;20.93;;
28481;SDS011;15703;49.588;6.260;2024-03-08T06:50:47;32.60;;;20.37;;
28481;SDS011;15703;49.588;6.260;2024-03-08T06:53:10;32.10;;;20.87;;
28481;SDS011;15703;49.588;6.260;2024-03-08T06:55:33;29.07;;;18.87;;
28481;SDS011;15703;49.588;6.260;2024-03-08T06:57:56;31.23;;;20.10;;
28481;SDS011;15703;49.588;6.260;2024-03-08T07:00:19;29.13;;;19.87;;
28481;SDS011;15703;49.588;6.260;2024-03-08T07:02:42;33.23;;;21.40;;
28481;SDS011;15703;49.588;6.260;2024-03-08T07:05:07;34.00;;;21.83;;
28481;SDS011;15703;49.588;6.260;2024-03-08T07:07:32;31.73;;;21.00;;
28481;SDS011;15703;49.588;6.260;2024-03-08T07:09:55;34.37;;;21.43;;
28481;SDS011;15703;49.588;6.260;2024-03-08T07:12:18;35.33;;;21.97;;
28481;SDS011;15703;49.588;6.260;2024-03-08T07:14:42;30.87;;;20.80;;
28481;SDS011;15703;49.588;6.260;2024-03-08T07:17:07;30.03;;;19.70;;
28481;SDS011;15703;49.588;6.260;2024-03-08T07:19:30;33.17;;;21.47;;
28481;SDS011;15703;49.588;6.260;2024-03-08T07:21:52;32.70;;;21.23;;
28481;SDS011;15703;49.588;6.260;2024-03-08T07:24:16;32.33;;;20.77;;
28481;SDS011;15703;49.588;6.260;2024-03-08T07:26:39;34.47;;;20.97;;
28481;SDS011;15703;49.588;6.260;2024-03-08T07:29:01;33.00;;;21.17;;
28481;SDS011;15703;49.588;6.260;2024-03-08T07:31:24;32.83;;;20.07;;
28481;SDS011;15703;49.588;6.260;2024-03-08T07:34:15;33.60;;;21.00;;
28481;SDS011;15703;49.588;6.260;2024-03-08T07:36:38;33.20;;;22.30;;
28481;SDS011;15703;49.588;6.260;2024-03-08T07:39:00;34.63;;;21.40;;
28481;SDS011;15703;49.588;6.260;2024-03-08T07:41:23;32.20;;;21.10;;
28481;SDS011;15703;49.588;6.260;2024-03-08T07:43:46;33.03;;;21.50;;
28481;SDS011;15703;49.588;6.260;2024-03-08T07:46:10;35.20;;;22.47;;
28481;SDS011;15703;49.588;6.260;2024-03-08T07:48:34;36.90;;;21.17;;
28481;SDS011;15703;49.588;6.260;2024-03-08T07:50:58;33.10;;;21.23;;
28481;SDS011;15703;49.588;6.260;2024-03-08T07:53:20;33.90;;;21.53;;
28481;SDS011;15703;49.588;6.260;2024-03-08T07:55:42;28.17;;;20.43;;
28481;SDS011;15703;49.588;6.260;2024-03-08T07:58:06;26.90;;;19.43;;
28481;SDS011;15703;49.588;6.260;2024-03-08T08:00:28;30.70;;;20.70;;
28481;SDS011;15703;49.588;6.260;2024-03-08T08:02:55;29.70;;;20.10;;
28481;SDS011;15703;49.588;6.260;2024-03-08T08:05:17;29.80;;;20.20;;
28481;SDS011;15703;49.588;6.260;2024-03-08T08:07:40;30.90;;;20.57;;
28481;SDS011;15703;49.588;6.260;2024-03-08T08:10:05;28.90;;;20.70;;
28481;SDS011;15703;49.588;6.260;2024-03-08T08:12:28;30.13;;;19.67;;
28481;SDS011;15703;49.588;6.260;2024-03-08T08:14:50;28.03;;;19.63;;
28481;SDS011;15703;49.588;6.260;2024-03-08T08:17:12;27.03;;;19.07;;
28481;SDS011;15703;49.588;6.260;2024-03-08T08:19:35;26.23;;;18.90;;
28481;SDS011;15703;49.588;6.260;2024-03-08T08:21:57;26.43;;;19.17;;
28481;SDS011;15703;49.588;6.260;2024-03-08T08:24:20;24.30;;;18.13;;
28481;SDS011;15703;49.588;6.260;2024-03-08T08:26:43;28.07;;;19.47;;
28481;SDS011;15703;49.588;6.260;2024-03-08T08:29:06;26.67;;;18.47;;
28481;SDS011;15703;49.588;6.260;2024-03-08T08:31:28;23.97;;;18.23;;
28481;SDS011;15703;49.588;6.260;2024-03-08T08:33:52;28.27;;;19.60;;
28481;SDS011;15703;49.588;6.260;2024-03-08T08:36:19;31.73;;;21.23;;
28481;SDS011;15703;49.588;6.260;2024-03-08T08:38:41;25.73;;;18.13;;
28481;SDS011;15703;49.588;6.260;2024-03-08T08:41:06;28.03;;;19.43;;
28481;SDS011;15703;49.588;6.260;2024-03-08T08:43:29;25.17;;;18.47;;
28481;SDS011;15703;49.588;6.260;2024-03-08T08:45:51;25.67;;;17.67;;
28481;SDS011;15703;49.588;6.260;2024-03-08T08:48:16;23.37;;;16.83;;
28481;SDS011;15703;49.588;6.260;2024-03-08T08:50:38;23.67;;;17.07;;
28481;SDS011;15703;49.588;6.260;2024-03-08T08:53:01;21.73;;;15.97;;
28481;SDS011;15703;49.588;6.260;2024-03-08T08:55:25;27.93;;;17.93;;
28481;SDS011;15703;49.588;6.260;2024-03-08T08:57:48;21.97;;;16.37;;
28481;SDS011;15703;49.588;6.260;2024-03-08T09:00:12;19.93;;;15.00;;
28481;SDS011;15703;49.588;6.260;2024-03-08T09:02:37;19.50;;;15.90;;
28481;SDS011;15703;49.588;6.260;2024-03-08T09:04:59;22.97;;;16.73;;
28481;SDS011;15703;49.588;6.260;2024-03-08T09:07:25;21.33;;;14.87;;
28481;SDS011;15703;49.588;6.260;2024-03-08T09:09:49;20.80;;;14.57;;
28481;SDS011;15703;49.588;6.260;2024-03-08T09:12:11;20.10;;;15.03;;
28481;SDS011;15703;49.588;6.260;2024-03-08T09:14:34;18.57;;;14.13;;
28481;SDS011;15703;49.588;6.260;2024-03-08T09:16:57;17.90;;;13.47;;
28481;SDS011;15703;49.588;6.260;2024-03-08T09:19:20;18.33;;;14.13;;
28481;SDS011;15703;49.588;6.260;2024-03-08T09:21:44;20.60;;;14.40;;
28481;SDS011;15703;49.588;6.260;2024-03-08T09:24:07;18.50;;;13.73;;
28481;SDS011;15703;49.588;6.260;2024-03-08T09:26:29;19.40;;;14.07;;
28481;SDS011;15703;49.588;6.260;2024-03-08T09:28:57;16.97;;;13.00;;
28481;SDS011;15703;49.588;6.260;2024-03-08T09:31:20;15.60;;;12.80;;
28481;SDS011;15703;49.588;6.260;2024-03-08T09:33:42;16.97;;;12.63;;
28481;SDS011;15703;49.588;6.260;2024-03-08T09:36:05;16.77;;;13.40;;
28481;SDS011;15703;49.588;6.260;2024-03-08T09:38:28;16.70;;;12.97;;
28481;SDS011;15703;49.588;6.260;2024-03-08T09:40:51;18.30;;;13.50;;
28481;SDS011;15703;49.588;6.260;2024-03-08T09:43:14;16.90;;;13.37;;
28481;SDS011;15703;49.588;6.260;2024-03-08T09:45:37;19.13;;;14.07;;
28481;SDS011;15703;49.588;6.260;2024-03-08T09:48:03;18.73;;;13.60;;
28481;SDS011;15703;49.588;6.260;2024-03-08T09:50:26;16.83;;;13.10;;
28481;SDS011;15703;49.588;6.260;2024-03-08T09:52:50;18.60;;;13.33;;
28481;SDS011;15703;49.588;6.260;2024-03-08T09:55:13;16.07;;;11.87;;
28481;SDS011;15703;49.588;6.260;2024-03-08T09:57:38;15.07;;;11.50;;
28481;SDS011;15703;49.588;6.260;2024-03-08T10:00:00;15.73;;;12.57;;
28481;SDS011;15703;49.588;6.260;2024-03-08T10:02:24;15.33;;;12.23;;
28481;SDS011;15703;49.588;6.260;2024-03-08T10:04:47;16.37;;;12.23;;
28481;SDS011;15703;49.588;6.260;2024-03-08T10:07:10;15.10;;;11.80;;
28481;SDS011;15703;49.588;6.260;2024-03-08T10:09:33;16.00;;;12.87;;
28481;SDS011;15703;49.588;6.260;2024-03-08T10:12:00;27.27;;;12.70;;
28481;SDS011;15703;49.588;6.260;2024-03-08T10:14:24;18.53;;;12.50;;
28481;SDS011;15703;49.588;6.260;2024-03-08T10:16:49;14.53;;;11.43;;
28481;SDS011;15703;49.588;6.260;2024-03-08T10:19:12;15.40;;;10.73;;
28481;SDS011;15703;49.588;6.260;2024-03-08T10:21:34;14.90;;;11.35;;
28481;SDS011;15703;49.588;6.260;2024-03-08T10:23:57;13.82;;;10.57;;
28481;SDS011;15703;49.588;6.260;2024-03-08T10:26:20;14.63;;;11.57;;
28481;SDS011;15703;49.588;6.260;2024-03-08T10:28:47;14.60;;;10.98;;
28481;SDS011;15703;49.588;6.260;2024-03-08T10:31:20;12.35;;;10.80;;
28481;SDS011;15703;49.588;6.260;2024-03-08T10:33:43;13.82;;;11.80;;
28481;SDS011;15703;49.588;6.260;2024-03-08T10:36:09;15.60;;;11.27;;
28481;SDS011;15703;49.588;6.260;2024-03-08T10:38:32;14.20;;;11.82;;
28481;SDS011;15703;49.588;6.260;2024-03-08T10:40:56;14.40;;;11.48;;
28481;SDS011;15703;49.588;6.260;2024-03-08T10:43:22;14.93;;;11.27;;
28481;SDS011;15703;49.588;6.260;2024-03-08T10:45:53;14.70;;;12.13;;
28481;SDS011;15703;49.588;6.260;2024-03-08T10:48:34;13.02;;;11.18;;
28481;SDS011;15703;49.588;6.260;2024-03-08T10:54:34;13.52;;;11.85;;
28481;SDS011;15703;49.588;6.260;2024-03-08T10:57:12;16.40;;;12.85;;
28481;SDS011;15703;49.588;6.260;2024-03-08T10:59:38;15.80;;;12.48;;
28481;SDS011;15703;49.588;6.260;2024-03-08T11:02:02;19.23;;;13.80;;
28481;SDS011;15703;49.588;6.260;2024-03-08T11:07:21;18.75;;;13.05;;
28481;SDS011;15703;49.588;6.260;2024-03-08T11:09:44;12.85;;;11.48;;
28481;SDS011;15703;49.588;6.260;2024-03-08T11:14:43;15.57;;;12.00;;
28481;SDS011;15703;49.588;6.260;2024-03-08T11:17:07;16.00;;;11.82;;
28481;SDS011;15703;49.588;6.260;2024-03-08T11:19:30;14.95;;;12.15;;
28481;SDS011;15703;49.588;6.260;2024-03-08T11:22:02;14.88;;;12.02;;
28481;SDS011;15703;49.588;6.260;2024-03-08T11:24:25;15.82;;;13.02;;
28481;SDS011;15703;49.588;6.260;2024-03-08T11:26:48;16.40;;;12.35;;
28481;SDS011;15703;49.588;6.260;2024-03-08T11:34:33;17.65;;;11.77;;
28481;SDS011;15703;49.588;6.260;2024-03-08T11:36:56;14.00;;;12.32;;
28481;SDS011;15703;49.588;6.260;2024-03-08T11:39:19;12.38;;;10.77;;
28481;SDS011;15703;49.588;6.260;2024-03-08T11:41:42;15.35;;;11.30;;
28481;SDS011;15703;49.588;6.260;2024-03-08T11:44:07;14.77;;;11.82;;
28481;SDS011;15703;49.588;6.260;2024-03-08T11:46:31;15.48;;;11.60;;
28481;SDS011;15703;49.588;6.260;2024-03-08T11:48:55;13.27;;;11.30;;
28481;SDS011;15703;49.588;6.260;2024-03-08T11:51:17;13.90;;;11.75;;
28481;SDS011;15703;49.588;6.260;2024-03-08T11:53:40;13.93;;;11.57;;
28481;SDS011;15703;49.588;6.260;2024-03-08T11:56:09;14.52;;;10.63;;
28481;SDS011;15703;49.588;6.260;2024-03-08T11:58:33;15.27;;;11.30;;
28481;SDS011;15703;49.588;6.260;2024-03-08T12:01:05;11.85;;;10.20;;
28481;SDS011;15703;49.588;6.260;2024-03-08T12:03:28;14.15;;;10.80;;
28481;SDS011;15703;49.588;6.260;2024-03-08T12:05:56;12.40;;;10.30;;
28481;SDS011;15703;49.588;6.260;2024-03-08T12:08:21;16.55;;;11.55;;
28481;SDS011;15703;49.588;6.260;2024-03-08T12:10:43;12.38;;;11.07;;
28481;SDS011;15703;49.588;6.260;2024-03-08T12:13:07;15.10;;;11.00;;
28481;SDS011;15703;49.588;6.260;2024-03-08T12:15:34;11.98;;;9.63;;
28481;SDS011;15703;49.588;6.260;2024-03-08T12:17:57;13.43;;;9.93;;
28481;SDS011;15703;49.588;6.260;2024-03-08T12:20:25;13.93;;;10.35;;
28481;SDS011;15703;49.588;6.260;2024-03-08T12:22:50;11.65;;;10.15;;
28481;SDS011;15703;49.588;6.260;2024-03-08T12:25:23;11.88;;;10.38;;
28481;SDS011;15703;49.588;6.260;2024-03-08T12:27:50;12.15;;;9.43;;
28481;SDS011;15703;49.588;6.260;2024-03-08T12:30:24;12.05;;;9.70;;
28481;SDS011;15703;49.588;6.260;2024-03-08T12:32:52;12.18;;;10.15;;
28481;SDS011;15703;49.588;6.260;2024-03-08T12:35:15;15.52;;;11.80;;
28481;SDS011;15703;49.588;6.260;2024-03-08T12:37:38;11.18;;;9.55;;
28481;SDS011;15703;49.588;6.260;2024-03-08T12:40:01;14.60;;;10.60;;
28481;SDS011;15703;49.588;6.260;2024-03-08T12:42:28;13.48;;;10.48;;
28481;SDS011;15703;49.588;6.260;2024-03-08T12:44:53;12.52;;;10.10;;
28481;SDS011;15703;49.588;6.260;2024-03-08T12:47:15;12.93;;;9.93;;
28481;SDS011;15703;49.588;6.260;2024-03-08T12:49:38;11.25;;;9.63;;
28481;SDS011;15703;49.588;6.260;2024-03-08T12:52:00;13.65;;;9.82;;
28481;SDS011;15703;49.588;6.260;2024-03-08T12:54:23;13.88;;;10.65;;
28481;SDS011;15703;49.588;6.260;2024-03-08T12:56:46;14.65;;;11.15;;
28481;SDS011;15703;49.588;6.260;2024-03-08T12:59:08;20.17;;;15.80;;
28481;SDS011;15703;49.588;6.260;2024-03-08T13:01:34;12.13;;;10.35;;
28481;SDS011;15703;49.588;6.260;2024-03-08T13:04:00;18.15;;;14.10;;
28481;SDS011;15703;49.588;6.260;2024-03-08T13:07:13;10.88;;;9.55;;
28481;SDS011;15703;49.588;6.260;2024-03-08T13:09:16;20.33;;;15.23;;
28481;SDS011;15703;49.588;6.260;2024-03-08T13:11:41;12.73;;;10.35;;
28481;SDS011;15703;49.588;6.260;2024-03-08T13:14:04;18.50;;;13.32;;
28481;SDS011;15703;49.588;6.260;2024-03-08T13:16:27;14.68;;;11.23;;
28481;SDS011;15703;49.588;6.260;2024-03-08T13:18:51;11.60;;;10.35;;
28481;SDS011;15703;49.588;6.260;2024-03-08T13:21:15;11.75;;;9.88;;
28481;SDS011;15703;49.588;6.260;2024-03-08T13:23:41;13.35;;;11.70;;
28481;SDS011;15703;49.588;6.260;2024-03-08T13:26:07;13.90;;;11.13;;
28481;SDS011;15703;49.588;6.260;2024-03-08T13:28:30;13.10;;;10.00;;
28481;SDS011;15703;49.588;6.260;2024-03-08T13:30:53;23.50;;;16.65;;
28481;SDS011;15703;49.588;6.260;2024-03-08T13:33:21;14.55;;;12.40;;
28481;SDS011;15703;49.588;6.260;2024-03-08T13:35:43;13.95;;;10.35;;
28481;SDS011;15703;49.588;6.260;2024-03-08T13:38:12;14.77;;;10.73;;
28481;SDS011;15703;49.588;6.260;2024-03-08T13:40:34;14.18;;;10.13;;
28481;SDS011;15703;49.588;6.260;2024-03-08T13:42:57;12.05;;;10.35;;
28481;SDS011;15703;49.588;6.260;2024-03-08T13:45:22;11.68;;;10.23;;
28481;SDS011;15703;49.588;6.260;2024-03-08T13:47:46;11.48;;;9.82;;
28481;SDS011;15703;49.588;6.260;2024-03-08T13:50:09;11.80;;;10.43;;
28481;SDS011;15703;49.588;6.260;2024-03-08T13:52:33;12.98;;;11.07;;
28481;SDS011;15703;49.588;6.260;2024-03-08T13:54:56;11.18;;;9.95;;
28481;SDS011;15703;49.588;6.260;2024-03-08T13:57:18;11.50;;;10.15;;
28481;SDS011;15703;49.588;6.260;2024-03-08T13:59:41;13.27;;;10.77;;
28481;SDS011;15703;49.588;6.260;2024-03-08T14:02:03;11.65;;;10.07;;
28481;SDS011;15703;49.588;6.260;2024-03-08T14:04:26;13.02;;;10.40;;
28481;SDS011;15703;49.588;6.260;2024-03-08T14:06:49;11.18;;;9.75;;
28481;SDS011;15703;49.588;6.260;2024-03-08T14:09:21;10.52;;;9.25;;
28481;SDS011;15703;49.588;6.260;2024-03-08T14:11:46;11.13;;;9.73;;
28481;SDS011;15703;49.588;6.260;2024-03-08T14:14:08;10.70;;;9.60;;